sensor_id;sensor_type;location;lat;lon;timestamp;P1;durP1;ratioP1;P2;durP2;ratioP2
34982;SDS011;21187;50.976;13.720;2023-05-10T00:03:38;5.43;;;2.30;;
34982;SDS011;21187;50.976;13.720;2023-05-10T00:08:41;5.70;;;2.20;;
34982;SDS011;21187;50.976;13.720;2023-05-10T00:13:43;3.40;;;2.17;;
34982;SDS011;21187;50.976;13.720;2023-05-10T00:18:45;4.43;;;2.05;;
34982;SDS011;21187;50.976;13.720;2023-05-10T00:23:47;6.97;;;2.28;;
34982;SDS011;21187;50.976;13.720;2023-05-10T00:28:49;5.38;;;2.13;;
34982;SDS011;21187;50.976;13.720;2023-05-10T00:33:52;4.30;;;2.13;;
34982;SDS011;21187;50.976;13.720;2023-05-10T00:38:54;6.10;;;2.55;;
34982;SDS011;21187;50.976;13.720;2023-05-10T00:43:55;9.57;;;2.42;;
34982;SDS011;21187;50.976;13.720;2023-05-10T00:48:57;6.65;;;2.47;;
34982;SDS011;21187;50.976;13.720;2023-05-10T00:53:59;4.47;;;2.50;;
34982;SDS011;21187;50.976;13.720;2023-05-10T00:59:01;4.43;;;2.10;;
34982;SDS011;21187;50.976;13.720;2023-05-10T01:04:03;5.22;;;2.20;;
34982;SDS011;21187;50.976;13.720;2023-05-10T01:09:06;3.75;;;2.00;;
34982;SDS011;21187;50.976;13.720;2023-05-10T01:14:08;11.77;;;2.33;;
34982;SDS011;21187;50.976;13.720;2023-05-10T01:19:25;3.67;;;2.13;;
34982;SDS011;21187;50.976;13.720;2023-05-10T01:40:32;4.20;;;2.25;;
34982;SDS011;21187;50.976;13.720;2023-05-10T01:45:38;3.78;;;2.17;;
34982;SDS011;21187;50.976;13.720;2023-05-10T01:51:00;6.75;;;2.22;;
34982;SDS011;21187;50.976;13.720;2023-05-10T01:56:03;3.25;;;1.80;;
34982;SDS011;21187;50.976;13.720;2023-05-10T02:01:06;6.18;;;2.20;;
34982;SDS011;21187;50.976;13.720;2023-05-10T02:06:10;4.90;;;2.28;;
34982;SDS011;21187;50.976;13.720;2023-05-10T02:11:15;3.13;;;1.80;;
34982;SDS011;21187;50.976;13.720;2023-05-10T02:16:20;2.83;;;1.63;;
34982;SDS011;21187;50.976;13.720;2023-05-10T02:21:27;3.28;;;2.10;;
34982;SDS011;21187;50.976;13.720;2023-05-10T02:26:31;7.32;;;1.90;;
34982;SDS011;21187;50.976;13.720;2023-05-10T02:31:35;4.63;;;1.98;;
34982;SDS011;21187;50.976;13.720;2023-05-10T02:36:40;5.40;;;2.20;;
34982;SDS011;21187;50.976;13.720;2023-05-10T02:41:43;7.13;;;1.75;;
34982;SDS011;21187;50.976;13.720;2023-05-10T02:46:47;6.20;;;1.80;;
34982;SDS011;21187;50.976;13.720;2023-05-10T02:51:55;5.78;;;2.22;;
34982;SDS011;21187;50.976;13.720;2023-05-10T02:57:03;4.93;;;2.05;;
34982;SDS011;21187;50.976;13.720;2023-05-10T03:02:07;3.95;;;2.15;;
34982;SDS011;21187;50.976;13.720;2023-05-10T03:07:10;4.55;;;2.95;;
34982;SDS011;21187;50.976;13.720;2023-05-10T03:17:47;2.97;;;1.98;;
34982;SDS011;21187;50.976;13.720;2023-05-10T03:23:00;10.15;;;2.53;;
34982;SDS011;21187;50.976;13.720;2023-05-10T03:28:06;5.65;;;2.15;;
34982;SDS011;21187;50.976;13.720;2023-05-10T03:33:10;5.30;;;1.98;;
34982;SDS011;21187;50.976;13.720;2023-05-10T03:38:15;5.95;;;2.45;;
34982;SDS011;21187;50.976;13.720;2023-05-10T03:43:17;3.70;;;2.40;;
34982;SDS011;21187;50.976;13.720;2023-05-10T03:48:19;4.40;;;2.05;;
34982;SDS011;21187;50.976;13.720;2023-05-10T03:53:21;3.47;;;2.30;;
34982;SDS011;21187;50.976;13.720;2023-05-10T03:58:24;3.08;;;1.90;;
34982;SDS011;21187;50.976;13.720;2023-05-10T04:03:26;5.05;;;2.40;;
34982;SDS011;21187;50.976;13.720;2023-05-10T04:08:28;4.57;;;2.45;;
34982;SDS011;21187;50.976;13.720;2023-05-10T04:13:30;4.20;;;2.15;;
34982;SDS011;21187;50.976;13.720;2023-05-10T04:18:32;8.65;;;2.42;;
34982;SDS011;21187;50.976;13.720;2023-05-10T04:23:34;2.15;;;1.55;;
34982;SDS011;21187;50.976;13.720;2023-05-10T04:28:36;5.88;;;1.73;;
34982;SDS011;21187;50.976;13.720;2023-05-10T04:33:38;6.00;;;2.47;;
34982;SDS011;21187;50.976;13.720;2023-05-10T04:38:40;3.50;;;2.00;;
34982;SDS011;21187;50.976;13.720;2023-05-10T04:43:42;8.15;;;2.00;;
34982;SDS011;21187;50.976;13.720;2023-05-10T04:48:44;8.68;;;1.98;;
34982;SDS011;21187;50.976;13.720;2023-05-10T04:53:45;3.30;;;1.85;;
34982;SDS011;21187;50.976;13.720;2023-05-10T04:59:05;4.18;;;2.00;;
34982;SDS011;21187;50.976;13.720;2023-05-10T05:04:07;5.63;;;2.42;;
34982;SDS011;21187;50.976;13.720;2023-05-10T05:09:09;2.17;;;1.77;;
34982;SDS011;21187;50.976;13.720;2023-05-10T05:14:11;7.10;;;2.17;;
34982;SDS011;21187;50.976;13.720;2023-05-10T05:19:13;5.85;;;1.60;;
34982;SDS011;21187;50.976;13.720;2023-05-10T05:24:15;3.83;;;2.45;;
34982;SDS011;21187;50.976;13.720;2023-05-10T05:29:17;7.90;;;2.17;;
34982;SDS011;21187;50.976;13.720;2023-05-10T05:34:18;3.92;;;2.30;;
34982;SDS011;21187;50.976;13.720;2023-05-10T05:39:21;4.45;;;2.20;;
34982;SDS011;21187;50.976;13.720;2023-05-10T05:44:23;5.65;;;1.75;;
34982;SDS011;21187;50.976;13.720;2023-05-10T05:49:25;3.63;;;1.92;;
34982;SDS011;21187;50.976;13.720;2023-05-10T05:54:28;3.38;;;1.75;;
34982;SDS011;21187;50.976;13.720;2023-05-10T05:59:30;7.43;;;2.10;;
34982;SDS011;21187;50.976;13.720;2023-05-10T06:04:32;4.35;;;1.90;;
34982;SDS011;21187;50.976;13.720;2023-05-10T06:09:34;5.25;;;2.05;;
34982;SDS011;21187;50.976;13.720;2023-05-10T06:14:36;4.25;;;2.17;;
34982;SDS011;21187;50.976;13.720;2023-05-10T06:19:38;6.55;;;2.10;;
34982;SDS011;21187;50.976;13.720;2023-05-10T06:24:40;6.15;;;1.98;;
34982;SDS011;21187;50.976;13.720;2023-05-10T06:29:41;5.65;;;2.13;;
34982;SDS011;21187;50.976;13.720;2023-05-10T06:34:43;8.90;;;2.05;;
34982;SDS011;21187;50.976;13.720;2023-05-10T06:39:46;7.13;;;1.83;;
34982;SDS011;21187;50.976;13.720;2023-05-10T06:44:47;5.00;;;2.22;;
34982;SDS011;21187;50.976;13.720;2023-05-10T06:49:49;5.18;;;2.53;;
34982;SDS011;21187;50.976;13.720;2023-05-10T06:54:52;5.78;;;1.95;;
34982;SDS011;21187;50.976;13.720;2023-05-10T06:59:54;6.97;;;2.20;;
34982;SDS011;21187;50.976;13.720;2023-05-10T07:04:57;3.83;;;1.88;;
34982;SDS011;21187;50.976;13.720;2023-05-10T07:10:03;4.53;;;2.20;;
34982;SDS011;21187;50.976;13.720;2023-05-10T07:15:05;5.18;;;2.10;;
34982;SDS011;21187;50.976;13.720;2023-05-10T07:20:08;7.80;;;2.15;;
34982;SDS011;21187;50.976;13.720;2023-05-10T07:25:10;3.65;;;2.13;;
34982;SDS011;21187;50.976;13.720;2023-05-10T07:30:13;4.72;;;2.40;;
34982;SDS011;21187;50.976;13.720;2023-05-10T07:35:16;2.47;;;1.90;;
34982;SDS011;21187;50.976;13.720;2023-05-10T07:40:18;4.07;;;2.30;;
34982;SDS011;21187;50.976;13.720;2023-05-10T07:45:20;10.32;;;2.08;;
34982;SDS011;21187;50.976;13.720;2023-05-10T07:50:23;4.25;;;2.17;;
34982;SDS011;21187;50.976;13.720;2023-05-10T07:55:24;4.28;;;2.30;;
34982;SDS011;21187;50.976;13.720;2023-05-10T08:00:27;4.43;;;2.10;;
34982;SDS011;21187;50.976;13.720;2023-05-10T08:05:28;5.10;;;1.92;;
34982;SDS011;21187;50.976;13.720;2023-05-10T08:10:30;6.55;;;2.15;;
34982;SDS011;21187;50.976;13.720;2023-05-10T08:15:33;3.83;;;2.35;;
34982;SDS011;21187;50.976;13.720;2023-05-10T08:20:35;7.07;;;2.60;;
34982;SDS011;21187;50.976;13.720;2023-05-10T08:25:37;7.50;;;2.38;;
34982;SDS011;21187;50.976;13.720;2023-05-10T08:30:39;3.45;;;2.00;;
34982;SDS011;21187;50.976;13.720;2023-05-10T08:35:41;7.88;;;2.55;;
34982;SDS011;21187;50.976;13.720;2023-05-10T08:40:43;6.63;;;2.63;;
34982;SDS011;21187;50.976;13.720;2023-05-10T08:45:46;6.07;;;2.50;;
34982;SDS011;21187;50.976;13.720;2023-05-10T08:50:52;4.35;;;2.17;;
34982;SDS011;21187;50.976;13.720;2023-05-10T08:55:58;4.45;;;2.47;;
34982;SDS011;21187;50.976;13.720;2023-05-10T09:01:02;4.90;;;2.70;;
34982;SDS011;21187;50.976;13.720;2023-05-10T09:06:05;4.53;;;2.22;;
34982;SDS011;21187;50.976;13.720;2023-05-10T09:11:08;8.10;;;2.55;;
34982;SDS011;21187;50.976;13.720;2023-05-10T09:16:11;7.93;;;2.78;;
34982;SDS011;21187;50.976;13.720;2023-05-10T09:21:21;4.15;;;2.50;;
34982;SDS011;21187;50.976;13.720;2023-05-10T09:26:23;4.80;;;2.40;;
34982;SDS011;21187;50.976;13.720;2023-05-10T09:31:47;3.95;;;2.47;;
34982;SDS011;21187;50.976;13.720;2023-05-10T09:36:51;6.57;;;2.65;;
34982;SDS011;21187;50.976;13.720;2023-05-10T09:41:58;8.53;;;3.00;;
34982;SDS011;21187;50.976;13.720;2023-05-10T09:47:02;3.95;;;2.33;;
34982;SDS011;21187;50.976;13.720;2023-05-10T09:52:05;5.18;;;2.67;;
34982;SDS011;21187;50.976;13.720;2023-05-10T09:57:11;5.95;;;2.40;;
34982;SDS011;21187;50.976;13.720;2023-05-10T10:02:27;6.07;;;2.53;;
34982;SDS011;21187;50.976;13.720;2023-05-10T10:07:30;4.25;;;2.80;;
34982;SDS011;21187;50.976;13.720;2023-05-10T10:12:33;3.65;;;2.42;;
34982;SDS011;21187;50.976;13.720;2023-05-10T10:17:35;4.28;;;2.65;;
34982;SDS011;21187;50.976;13.720;2023-05-10T10:22:39;3.92;;;2.90;;
34982;SDS011;21187;50.976;13.720;2023-05-10T10:32:59;7.93;;;2.60;;
34982;SDS011;21187;50.976;13.720;2023-05-10T10:38:38;4.90;;;2.55;;
34982;SDS011;21187;50.976;13.720;2023-05-10T10:49:25;5.15;;;2.65;;
34982;SDS011;21187;50.976;13.720;2023-05-10T10:54:27;6.90;;;2.78;;
34982;SDS011;21187;50.976;13.720;2023-05-10T10:59:29;5.53;;;3.10;;
34982;SDS011;21187;50.976;13.720;2023-05-10T11:04:41;6.57;;;2.97;;
34982;SDS011;21187;50.976;13.720;2023-05-10T11:09:45;5.57;;;2.67;;
34982;SDS011;21187;50.976;13.720;2023-05-10T11:14:51;8.52;;;2.72;;
34982;SDS011;21187;50.976;13.720;2023-05-10T11:20:06;6.22;;;3.38;;
34982;SDS011;21187;50.976;13.720;2023-05-10T11:25:11;7.85;;;2.83;;
34982;SDS011;21187;50.976;13.720;2023-05-10T11:30:14;7.00;;;3.35;;
34982;SDS011;21187;50.976;13.720;2023-05-10T11:35:16;7.63;;;3.20;;
34982;SDS011;21187;50.976;13.720;2023-05-10T11:40:18;4.50;;;2.88;;
34982;SDS011;21187;50.976;13.720;2023-05-10T11:45:23;6.85;;;2.85;;
34982;SDS011;21187;50.976;13.720;2023-05-10T11:50:25;6.68;;;2.95;;
34982;SDS011;21187;50.976;13.720;2023-05-10T11:55:28;4.47;;;2.58;;
34982;SDS011;21187;50.976;13.720;2023-05-10T12:00:31;5.35;;;2.58;;
34982;SDS011;21187;50.976;13.720;2023-05-10T12:05:34;7.90;;;2.97;;
34982;SDS011;21187;50.976;13.720;2023-05-10T12:10:37;9.55;;;2.80;;
34982;SDS011;21187;50.976;13.720;2023-05-10T12:15:38;4.43;;;2.30;;
34982;SDS011;21187;50.976;13.720;2023-05-10T12:20:40;6.70;;;2.78;;
34982;SDS011;21187;50.976;13.720;2023-05-10T12:25:42;8.38;;;3.00;;
34982;SDS011;21187;50.976;13.720;2023-05-10T12:30:44;5.75;;;2.38;;
34982;SDS011;21187;50.976;13.720;2023-05-10T12:35:50;4.50;;;2.55;;
34982;SDS011;21187;50.976;13.720;2023-05-10T12:40:53;8.00;;;3.03;;
34982;SDS011;21187;50.976;13.720;2023-05-10T12:45:55;6.28;;;2.72;;
34982;SDS011;21187;50.976;13.720;2023-05-10T12:50:58;14.98;;;3.42;;
34982;SDS011;21187;50.976;13.720;2023-05-10T12:55:59;6.00;;;2.40;;
34982;SDS011;21187;50.976;13.720;2023-05-10T13:01:02;6.72;;;3.15;;
34982;SDS011;21187;50.976;13.720;2023-05-10T13:06:04;7.40;;;2.97;;
34982;SDS011;21187;50.976;13.720;2023-05-10T13:11:07;3.92;;;2.53;;
34982;SDS011;21187;50.976;13.720;2023-05-10T13:16:09;6.13;;;3.22;;
34982;SDS011;21187;50.976;13.720;2023-05-10T13:21:11;4.85;;;2.83;;
34982;SDS011;21187;50.976;13.720;2023-05-10T13:26:13;7.68;;;2.42;;
34982;SDS011;21187;50.976;13.720;2023-05-10T13:31:15;7.95;;;2.78;;
34982;SDS011;21187;50.976;13.720;2023-05-10T13:36:17;5.35;;;2.30;;
34982;SDS011;21187;50.976;13.720;2023-05-10T13:41:19;5.10;;;2.78;;
34982;SDS011;21187;50.976;13.720;2023-05-10T13:46:21;3.80;;;2.25;;
34982;SDS011;21187;50.976;13.720;2023-05-10T13:51:24;7.25;;;2.30;;
34982;SDS011;21187;50.976;13.720;2023-05-10T13:56:26;6.00;;;2.70;;
34982;SDS011;21187;50.976;13.720;2023-05-10T14:01:29;6.30;;;2.75;;
34982;SDS011;21187;50.976;13.720;2023-05-10T14:06:30;6.22;;;2.78;;
34982;SDS011;21187;50.976;13.720;2023-05-10T14:11:33;4.30;;;2.55;;
34982;SDS011;21187;50.976;13.720;2023-05-10T14:16:35;5.93;;;2.58;;
34982;SDS011;21187;50.976;13.720;2023-05-10T14:21:37;5.25;;;2.80;;
34982;SDS011;21187;50.976;13.720;2023-05-10T14:26:39;3.63;;;2.50;;
34982;SDS011;21187;50.976;13.720;2023-05-10T14:31:41;6.97;;;2.45;;
34982;SDS011;21187;50.976;13.720;2023-05-10T14:36:43;8.27;;;2.60;;
34982;SDS011;21187;50.976;13.720;2023-05-10T14:41:45;4.10;;;2.45;;
34982;SDS011;21187;50.976;13.720;2023-05-10T14:46:48;3.97;;;2.15;;
34982;SDS011;21187;50.976;13.720;2023-05-10T14:51:51;4.80;;;2.20;;
34982;SDS011;21187;50.976;13.720;2023-05-10T14:56:53;3.75;;;2.53;;
34982;SDS011;21187;50.976;13.720;2023-05-10T15:01:55;5.47;;;2.70;;
34982;SDS011;21187;50.976;13.720;2023-05-10T15:06:57;6.28;;;2.80;;
34982;SDS011;21187;50.976;13.720;2023-05-10T15:12:00;11.35;;;3.08;;
34982;SDS011;21187;50.976;13.720;2023-05-10T15:17:02;6.55;;;2.40;;
34982;SDS011;21187;50.976;13.720;2023-05-10T15:22:04;4.47;;;2.20;;
34982;SDS011;21187;50.976;13.720;2023-05-10T15:27:07;5.18;;;2.50;;
34982;SDS011;21187;50.976;13.720;2023-05-10T15:32:09;4.30;;;2.17;;
34982;SDS011;21187;50.976;13.720;2023-05-10T15:37:10;6.88;;;3.22;;
34982;SDS011;21187;50.976;13.720;2023-05-10T15:42:12;8.57;;;3.50;;
34982;SDS011;21187;50.976;13.720;2023-05-10T15:47:14;4.68;;;3.15;;
34982;SDS011;21187;50.976;13.720;2023-05-10T15:52:16;5.95;;;3.35;;
34982;SDS011;21187;50.976;13.720;2023-05-10T15:57:19;5.32;;;3.53;;
34982;SDS011;21187;50.976;13.720;2023-05-10T16:02:21;8.75;;;4.05;;
34982;SDS011;21187;50.976;13.720;2023-05-10T16:07:23;11.35;;;4.75;;
34982;SDS011;21187;50.976;13.720;2023-05-10T16:12:25;9.88;;;3.95;;
34982;SDS011;21187;50.976;13.720;2023-05-10T16:17:27;8.07;;;3.67;;
34982;SDS011;21187;50.976;13.720;2023-05-10T16:22:29;7.50;;;3.55;;
34982;SDS011;21187;50.976;13.720;2023-05-10T16:27:31;10.50;;;3.13;;
34982;SDS011;21187;50.976;13.720;2023-05-10T16:32:34;7.43;;;3.13;;
34982;SDS011;21187;50.976;13.720;2023-05-10T16:37:36;5.80;;;3.40;;
34982;SDS011;21187;50.976;13.720;2023-05-10T16:42:38;7.78;;;3.40;;
34982;SDS011;21187;50.976;13.720;2023-05-10T16:47:40;6.25;;;3.60;;
34982;SDS011;21187;50.976;13.720;2023-05-10T16:52:42;5.50;;;3.60;;
34982;SDS011;21187;50.976;13.720;2023-05-10T16:57:44;7.78;;;3.40;;
34982;SDS011;21187;50.976;13.720;2023-05-10T17:02:46;7.43;;;4.05;;
34982;SDS011;21187;50.976;13.720;2023-05-10T17:07:49;9.20;;;3.53;;
34982;SDS011;21187;50.976;13.720;2023-05-10T17:12:51;7.55;;;2.80;;
34982;SDS011;21187;50.976;13.720;2023-05-10T17:17:54;4.80;;;2.97;;
34982;SDS011;21187;50.976;13.720;2023-05-10T17:22:56;7.43;;;3.40;;
34982;SDS011;21187;50.976;13.720;2023-05-10T17:27:58;6.85;;;3.47;;
34982;SDS011;21187;50.976;13.720;2023-05-10T17:33:00;6.80;;;3.35;;
34982;SDS011;21187;50.976;13.720;2023-05-10T17:38:02;10.95;;;3.63;;
34982;SDS011;21187;50.976;13.720;2023-05-10T17:43:04;10.98;;;3.28;;
34982;SDS011;21187;50.976;13.720;2023-05-10T17:48:06;10.20;;;3.47;;
34982;SDS011;21187;50.976;13.720;2023-05-10T17:53:08;14.65;;;5.25;;
34982;SDS011;21187;50.976;13.720;2023-05-10T17:58:10;10.50;;;4.60;;
34982;SDS011;21187;50.976;13.720;2023-05-10T18:03:12;13.35;;;3.83;;
34982;SDS011;21187;50.976;13.720;2023-05-10T18:08:14;6.55;;;3.03;;
34982;SDS011;21187;50.976;13.720;2023-05-10T18:13:17;7.25;;;3.60;;
34982;SDS011;21187;50.976;13.720;2023-05-10T18:18:19;5.32;;;2.95;;
34982;SDS011;21187;50.976;13.720;2023-05-10T18:23:21;6.95;;;2.67;;
34982;SDS011;21187;50.976;13.720;2023-05-10T18:28:24;4.68;;;2.97;;
34982;SDS011;21187;50.976;13.720;2023-05-10T18:33:26;6.47;;;2.47;;
34982;SDS011;21187;50.976;13.720;2023-05-10T18:38:28;5.80;;;2.63;;
34982;SDS011;21187;50.976;13.720;2023-05-10T18:43:29;5.03;;;2.50;;
34982;SDS011;21187;50.976;13.720;2023-05-10T18:48:31;4.53;;;2.80;;
34982;SDS011;21187;50.976;13.720;2023-05-10T18:53:33;3.97;;;2.42;;
34982;SDS011;21187;50.976;13.720;2023-05-10T18:58:35;4.10;;;2.45;;
34982;SDS011;21187;50.976;13.720;2023-05-10T19:03:37;3.15;;;2.40;;
34982;SDS011;21187;50.976;13.720;2023-05-10T19:08:39;4.45;;;2.67;;
34982;SDS011;21187;50.976;13.720;2023-05-10T19:13:41;7.38;;;2.38;;
34982;SDS011;21187;50.976;13.720;2023-05-10T19:18:44;4.07;;;2.20;;
34982;SDS011;21187;50.976;13.720;2023-05-10T19:23:47;2.72;;;1.98;;
34982;SDS011;21187;50.976;13.720;2023-05-10T19:28:50;6.22;;;2.38;;
34982;SDS011;21187;50.976;13.720;2023-05-10T19:33:52;3.70;;;1.98;;
34982;SDS011;21187;50.976;13.720;2023-05-10T19:38:54;3.30;;;2.35;;
34982;SDS011;21187;50.976;13.720;2023-05-10T19:43:56;3.20;;;2.10;;
34982;SDS011;21187;50.976;13.720;2023-05-10T19:48:58;3.80;;;2.17;;
34982;SDS011;21187;50.976;13.720;2023-05-10T19:54:00;6.70;;;2.00;;
34982;SDS011;21187;50.976;13.720;2023-05-10T19:59:02;2.70;;;1.77;;
34982;SDS011;21187;50.976;13.720;2023-05-10T20:04:04;6.40;;;2.13;;
34982;SDS011;21187;50.976;13.720;2023-05-10T20:09:06;2.30;;;1.80;;
34982;SDS011;21187;50.976;13.720;2023-05-10T20:14:09;7.47;;;2.20;;
34982;SDS011;21187;50.976;13.720;2023-05-10T20:19:11;3.97;;;2.60;;
34982;SDS011;21187;50.976;13.720;2023-05-10T20:24:14;4.63;;;2.33;;
34982;SDS011;21187;50.976;13.720;2023-05-10T20:29:16;5.68;;;2.38;;
34982;SDS011;21187;50.976;13.720;2023-05-10T20:34:18;3.40;;;2.42;;
34982;SDS011;21187;50.976;13.720;2023-05-10T20:39:20;4.55;;;2.70;;
34982;SDS011;21187;50.976;13.720;2023-05-10T20:44:22;4.03;;;2.50;;
34982;SDS011;21187;50.976;13.720;2023-05-10T20:49:23;7.88;;;2.58;;
34982;SDS011;21187;50.976;13.720;2023-05-10T20:54:25;3.25;;;2.28;;
34982;SDS011;21187;50.976;13.720;2023-05-10T20:59:27;3.25;;;2.13;;
34982;SDS011;21187;50.976;13.720;2023-05-10T21:04:29;3.42;;;2.03;;
34982;SDS011;21187;50.976;13.720;2023-05-10T21:09:32;6.10;;;2.65;;
34982;SDS011;21187;50.976;13.720;2023-05-10T21:14:35;4.57;;;2.40;;
34982;SDS011;21187;50.976;13.720;2023-05-10T21:19:37;7.50;;;2.83;;
34982;SDS011;21187;50.976;13.720;2023-05-10T21:24:39;4.30;;;2.50;;
34982;SDS011;21187;50.976;13.720;2023-05-10T21:29:41;8.75;;;3.35;;
34982;SDS011;21187;50.976;13.720;2023-05-10T21:34:43;3.70;;;2.53;;
34982;SDS011;21187;50.976;13.720;2023-05-10T21:39:45;4.50;;;2.70;;
34982;SDS011;21187;50.976;13.720;2023-05-10T21:44:46;7.07;;;3.00;;
34982;SDS011;21187;50.976;13.720;2023-05-10T21:49:48;6.47;;;3.22;;
34982;SDS011;21187;50.976;13.720;2023-05-10T21:54:50;4.00;;;2.60;;
34982;SDS011;21187;50.976;13.720;2023-05-10T21:59:52;4.00;;;2.88;;
34982;SDS011;21187;50.976;13.720;2023-05-10T22:04:54;6.70;;;3.20;;
34982;SDS011;21187;50.976;13.720;2023-05-10T22:09:56;5.47;;;2.97;;
34982;SDS011;21187;50.976;13.720;2023-05-10T22:14:59;6.47;;;3.53;;
34982;SDS011;21187;50.976;13.720;2023-05-10T22:20:11;5.95;;;3.40;;
34982;SDS011;21187;50.976;13.720;2023-05-10T22:25:13;5.40;;;3.30;;
34982;SDS011;21187;50.976;13.720;2023-05-10T22:30:15;7.43;;;3.50;;
34982;SDS011;21187;50.976;13.720;2023-05-10T22:35:17;5.28;;;3.38;;
34982;SDS011;21187;50.976;13.720;2023-05-10T22:40:19;6.80;;;3.60;;
34982;SDS011;21187;50.976;13.720;2023-05-10T22:45:21;5.55;;;3.30;;
34982;SDS011;21187;50.976;13.720;2023-05-10T22:50:24;7.03;;;3.65;;
34982;SDS011;21187;50.976;13.720;2023-05-10T22:55:26;6.20;;;3.30;;
34982;SDS011;21187;50.976;13.720;2023-05-10T23:00:28;5.55;;;3.45;;
34982;SDS011;21187;50.976;13.720;2023-05-10T23:05:30;6.38;;;3.75;;
34982;SDS011;21187;50.976;13.720;2023-05-10T23:10:31;9.27;;;3.63;;
34982;SDS011;21187;50.976;13.720;2023-05-10T23:15:33;7.78;;;3.40;;
34982;SDS011;21187;50.976;13.720;2023-05-10T23:20:40;5.13;;;3.63;;
34982;SDS011;21187;50.976;13.720;2023-05-10T23:25:43;5.10;;;3.35;;
34982;SDS011;21187;50.976;13.720;2023-05-10T23:30:45;5.72;;;3.45;;
34982;SDS011;21187;50.976;13.720;2023-05-10T23:35:46;5.88;;;3.40;;
34982;SDS011;21187;50.976;13.720;2023-05-10T23:40:49;10.15;;;3.53;;
34982;SDS011;21187;50.976;13.720;2023-05-10T23:45:52;6.90;;;3.20;;
34982;SDS011;21187;50.976;13.720;2023-05-10T23:50:57;6.38;;;3.70;;
34982;SDS011;21187;50.976;13.720;2023-05-10T23:55:59;8.02;;;3.58;;
